sensor_id;sensor_type;location;lat;lon;timestamp;P1;durP1;ratioP1;P2;durP2;ratioP2
42866;SDS011;39461;40.948;73.006;2023-02-28T00:01:35;33.97;;;18.40;;
42866;SDS011;39461;40.948;73.006;2023-02-28T00:04:08;32.47;;;17.10;;
42866;SDS011;39461;40.948;73.006;2023-02-28T00:06:44;25.02;;;16.40;;
42866;SDS011;39461;40.948;73.006;2023-02-28T00:09:19;26.83;;;16.00;;
42866;SDS011;39461;40.948;73.006;2023-02-28T00:11:52;26.73;;;15.48;;
42866;SDS011;39461;40.948;73.006;2023-02-28T00:14:25;25.23;;;15.75;;
42866;SDS011;39461;40.948;73.006;2023-02-28T00:17:00;33.08;;;15.77;;
42866;SDS011;39461;40.948;73.006;2023-02-28T00:19:33;24.58;;;14.35;;
42866;SDS011;39461;40.948;73.006;2023-02-28T00:22:06;23.27;;;14.48;;
42866;SDS011;39461;40.948;73.006;2023-02-28T00:24:33;21.27;;;14.55;;
42866;SDS011;39461;40.948;73.006;2023-02-28T00:27:00;24.35;;;15.30;;
42866;SDS011;39461;40.948;73.006;2023-02-28T00:29:33;28.92;;;15.68;;
42866;SDS011;39461;40.948;73.006;2023-02-28T00:32:09;26.73;;;17.60;;
42866;SDS011;39461;40.948;73.006;2023-02-28T00:34:44;28.35;;;16.85;;
42866;SDS011;39461;40.948;73.006;2023-02-28T00:37:19;30.05;;;18.30;;
42866;SDS011;39461;40.948;73.006;2023-02-28T00:39:54;33.67;;;20.15;;
42866;SDS011;39461;40.948;73.006;2023-02-28T00:42:27;33.35;;;19.98;;
42866;SDS011;39461;40.948;73.006;2023-02-28T00:45:03;33.35;;;19.50;;
42866;SDS011;39461;40.948;73.006;2023-02-28T00:47:38;25.92;;;17.92;;
42866;SDS011;39461;40.948;73.006;2023-02-28T00:50:13;35.20;;;17.30;;
42866;SDS011;39461;40.948;73.006;2023-02-28T00:52:48;26.15;;;15.60;;
42866;SDS011;39461;40.948;73.006;2023-02-28T00:55:21;31.58;;;16.10;;
42866;SDS011;39461;40.948;73.006;2023-02-28T00:58:06;28.20;;;15.80;;
42866;SDS011;39461;40.948;73.006;2023-02-28T01:00:58;28.55;;;15.57;;
42866;SDS011;39461;40.948;73.006;2023-02-28T01:03:34;27.33;;;14.85;;
42866;SDS011;39461;40.948;73.006;2023-02-28T01:06:07;25.48;;;15.48;;
42866;SDS011;39461;40.948;73.006;2023-02-28T01:08:40;28.58;;;15.63;;
42866;SDS011;39461;40.948;73.006;2023-02-28T01:11:14;28.90;;;18.42;;
42866;SDS011;39461;40.948;73.006;2023-02-28T01:13:47;28.90;;;17.70;;
42866;SDS011;39461;40.948;73.006;2023-02-28T01:16:25;34.97;;;19.08;;
42866;SDS011;39461;40.948;73.006;2023-02-28T01:18:58;37.03;;;21.15;;
42866;SDS011;39461;40.948;73.006;2023-02-28T01:21:31;40.72;;;23.13;;
42866;SDS011;39461;40.948;73.006;2023-02-28T01:27:02;43.33;;;24.00;;
42866;SDS011;39461;40.948;73.006;2023-02-28T01:29:37;41.55;;;23.13;;
42866;SDS011;39461;40.948;73.006;2023-02-28T01:32:12;54.80;;;26.23;;
42866;SDS011;39461;40.948;73.006;2023-02-28T01:34:45;51.20;;;29.58;;
42866;SDS011;39461;40.948;73.006;2023-02-28T01:37:18;56.40;;;31.17;;
42866;SDS011;39461;40.948;73.006;2023-02-28T01:39:51;52.50;;;30.95;;
42866;SDS011;39461;40.948;73.006;2023-02-28T01:42:24;52.97;;;33.10;;
42866;SDS011;39461;40.948;73.006;2023-02-28T01:47:38;43.65;;;25.00;;
42866;SDS011;39461;40.948;73.006;2023-02-28T01:50:16;56.92;;;29.10;;
42866;SDS011;39461;40.948;73.006;2023-02-28T01:52:51;44.88;;;23.85;;
42866;SDS011;39461;40.948;73.006;2023-02-28T01:55:27;64.72;;;26.80;;
42866;SDS011;39461;40.948;73.006;2023-02-28T01:58:04;50.17;;;24.50;;
42866;SDS011;39461;40.948;73.006;2023-02-28T02:00:40;45.95;;;25.95;;
42866;SDS011;39461;40.948;73.006;2023-02-28T02:03:16;49.88;;;25.92;;
42866;SDS011;39461;40.948;73.006;2023-02-28T02:05:53;69.22;;;26.00;;
42866;SDS011;39461;40.948;73.006;2023-02-28T02:08:26;62.08;;;26.27;;
42866;SDS011;39461;40.948;73.006;2023-02-28T02:11:00;63.42;;;30.48;;
42866;SDS011;39461;40.948;73.006;2023-02-28T02:13:49;69.50;;;34.45;;
42866;SDS011;39461;40.948;73.006;2023-02-28T02:20:02;53.95;;;29.42;;
42866;SDS011;39461;40.948;73.006;2023-02-28T02:27:23;54.17;;;30.80;;
42866;SDS011;39461;40.948;73.006;2023-02-28T02:35:18;43.97;;;26.55;;
42866;SDS011;39461;40.948;73.006;2023-02-28T02:43:44;69.40;;;31.27;;
42866;SDS011;39461;40.948;73.006;2023-02-28T02:46:21;53.65;;;30.13;;
42866;SDS011;39461;40.948;73.006;2023-02-28T02:48:57;79.15;;;38.28;;
42866;SDS011;39461;40.948;73.006;2023-02-28T02:51:32;83.70;;;42.90;;
42866;SDS011;39461;40.948;73.006;2023-02-28T02:54:08;67.95;;;32.95;;
42866;SDS011;39461;40.948;73.006;2023-02-28T02:56:45;65.38;;;31.42;;
42866;SDS011;39461;40.948;73.006;2023-02-28T02:59:20;56.67;;;30.67;;
42866;SDS011;39461;40.948;73.006;2023-02-28T03:02:01;50.63;;;29.80;;
42866;SDS011;39461;40.948;73.006;2023-02-28T03:04:42;45.33;;;26.98;;
42866;SDS011;39461;40.948;73.006;2023-02-28T03:07:16;56.17;;;31.70;;
42866;SDS011;39461;40.948;73.006;2023-02-28T03:09:53;68.07;;;39.60;;
42866;SDS011;39461;40.948;73.006;2023-02-28T03:12:31;80.25;;;45.20;;
42866;SDS011;39461;40.948;73.006;2023-02-28T03:18:09;77.28;;;40.13;;
42866;SDS011;39461;40.948;73.006;2023-02-28T03:20:51;70.50;;;43.47;;
42866;SDS011;39461;40.948;73.006;2023-02-28T03:23:37;76.18;;;43.80;;
42866;SDS011;39461;40.948;73.006;2023-02-28T03:26:19;62.45;;;38.75;;
42866;SDS011;39461;40.948;73.006;2023-02-28T03:29:03;70.25;;;39.20;;
42866;SDS011;39461;40.948;73.006;2023-02-28T03:31:45;83.97;;;41.47;;
42866;SDS011;39461;40.948;73.006;2023-02-28T03:34:34;95.32;;;52.40;;
42866;SDS011;39461;40.948;73.006;2023-02-28T03:37:11;107.05;;;56.45;;
42866;SDS011;39461;40.948;73.006;2023-02-28T03:39:47;139.57;;;66.45;;
42866;SDS011;39461;40.948;73.006;2023-02-28T03:42:23;166.93;;;75.22;;
42866;SDS011;39461;40.948;73.006;2023-02-28T03:44:58;142.13;;;65.63;;
42866;SDS011;39461;40.948;73.006;2023-02-28T03:47:39;138.65;;;66.15;;
42866;SDS011;39461;40.948;73.006;2023-02-28T03:52:58;93.55;;;53.42;;
42866;SDS011;39461;40.948;73.006;2023-02-28T03:55:41;104.75;;;62.72;;
42866;SDS011;39461;40.948;73.006;2023-02-28T04:01:20;66.55;;;42.78;;
42866;SDS011;39461;40.948;73.006;2023-02-28T04:03:54;80.40;;;47.83;;
42866;SDS011;39461;40.948;73.006;2023-02-28T04:06:29;78.32;;;47.30;;
42866;SDS011;39461;40.948;73.006;2023-02-28T04:09:05;80.97;;;48.03;;
42866;SDS011;39461;40.948;73.006;2023-02-28T04:11:46;81.85;;;52.58;;
42866;SDS011;39461;40.948;73.006;2023-02-28T04:14:19;90.60;;;49.55;;
42866;SDS011;39461;40.948;73.006;2023-02-28T04:16:55;79.38;;;45.95;;
42866;SDS011;39461;40.948;73.006;2023-02-28T04:19:28;81.72;;;48.28;;
42866;SDS011;39461;40.948;73.006;2023-02-28T04:22:06;86.28;;;48.95;;
42866;SDS011;39461;40.948;73.006;2023-02-28T04:24:35;77.60;;;46.95;;
42866;SDS011;39461;40.948;73.006;2023-02-28T04:27:02;80.28;;;50.33;;
42866;SDS011;39461;40.948;73.006;2023-02-28T04:29:37;75.25;;;47.97;;
42866;SDS011;39461;40.948;73.006;2023-02-28T04:32:12;82.05;;;49.05;;
42866;SDS011;39461;40.948;73.006;2023-02-28T04:34:46;88.72;;;54.33;;
42866;SDS011;39461;40.948;73.006;2023-02-28T04:40:20;79.25;;;49.28;;
42866;SDS011;39461;40.948;73.006;2023-02-28T04:42:55;88.80;;;54.83;;
42866;SDS011;39461;40.948;73.006;2023-02-28T04:45:30;87.80;;;54.47;;
42866;SDS011;39461;40.948;73.006;2023-02-28T04:48:07;94.63;;;58.30;;
42866;SDS011;39461;40.948;73.006;2023-02-28T04:50:40;90.22;;;55.20;;
42866;SDS011;39461;40.948;73.006;2023-02-28T04:53:16;81.35;;;48.85;;
42866;SDS011;39461;40.948;73.006;2023-02-28T04:55:51;76.70;;;48.05;;
42866;SDS011;39461;40.948;73.006;2023-02-28T04:58:27;128.15;;;87.30;;
42866;SDS011;39461;40.948;73.006;2023-02-28T05:01:04;72.57;;;46.83;;
42866;SDS011;39461;40.948;73.006;2023-02-28T05:03:46;63.72;;;38.20;;
42866;SDS011;39461;40.948;73.006;2023-02-28T05:06:20;58.00;;;34.75;;
42866;SDS011;39461;40.948;73.006;2023-02-28T05:08:56;55.50;;;34.05;;
42866;SDS011;39461;40.948;73.006;2023-02-28T05:11:34;71.88;;;41.47;;
42866;SDS011;39461;40.948;73.006;2023-02-28T05:14:10;70.03;;;44.58;;
42866;SDS011;39461;40.948;73.006;2023-02-28T05:16:46;64.60;;;40.20;;
42866;SDS011;39461;40.948;73.006;2023-02-28T05:19:20;59.75;;;40.50;;
42866;SDS011;39461;40.948;73.006;2023-02-28T05:21:54;65.72;;;42.22;;
42866;SDS011;39461;40.948;73.006;2023-02-28T05:24:30;70.07;;;44.80;;
42866;SDS011;39461;40.948;73.006;2023-02-28T05:30:05;77.78;;;50.03;;
42866;SDS011;39461;40.948;73.006;2023-02-28T05:32:49;71.57;;;47.67;;
42866;SDS011;39461;40.948;73.006;2023-02-28T05:35:24;86.00;;;54.85;;
42866;SDS011;39461;40.948;73.006;2023-02-28T05:40:59;81.93;;;50.13;;
42866;SDS011;39461;40.948;73.006;2023-02-28T05:43:35;71.78;;;47.33;;
42866;SDS011;39461;40.948;73.006;2023-02-28T05:46:10;77.90;;;46.45;;
42866;SDS011;39461;40.948;73.006;2023-02-28T05:48:47;70.63;;;45.83;;
42866;SDS011;39461;40.948;73.006;2023-02-28T05:51:22;79.13;;;45.28;;
42866;SDS011;39461;40.948;73.006;2023-02-28T05:53:58;71.03;;;40.13;;
42866;SDS011;39461;40.948;73.006;2023-02-28T05:56:32;61.45;;;39.65;;
42866;SDS011;39461;40.948;73.006;2023-02-28T05:59:12;81.20;;;42.60;;
42866;SDS011;39461;40.948;73.006;2023-02-28T06:04:46;67.75;;;41.20;;
42866;SDS011;39461;40.948;73.006;2023-02-28T06:07:19;54.72;;;36.88;;
42866;SDS011;39461;40.948;73.006;2023-02-28T06:09:56;138.48;;;86.68;;
42866;SDS011;39461;40.948;73.006;2023-02-28T06:12:31;91.60;;;51.85;;
42866;SDS011;39461;40.948;73.006;2023-02-28T06:18:07;62.90;;;40.15;;
42866;SDS011;39461;40.948;73.006;2023-02-28T06:20:42;79.20;;;51.38;;
42866;SDS011;39461;40.948;73.006;2023-02-28T06:23:25;52.78;;;32.53;;
42866;SDS011;39461;40.948;73.006;2023-02-28T06:25:54;50.08;;;31.25;;
42866;SDS011;39461;40.948;73.006;2023-02-28T06:28:24;47.20;;;30.25;;
42866;SDS011;39461;40.948;73.006;2023-02-28T06:31:06;42.97;;;28.33;;
42866;SDS011;39461;40.948;73.006;2023-02-28T06:33:41;59.75;;;34.20;;
42866;SDS011;39461;40.948;73.006;2023-02-28T06:36:16;48.88;;;29.05;;
42866;SDS011;39461;40.948;73.006;2023-02-28T06:38:54;45.85;;;28.90;;
42866;SDS011;39461;40.948;73.006;2023-02-28T06:41:29;42.28;;;27.20;;
42866;SDS011;39461;40.948;73.006;2023-02-28T06:44:08;46.30;;;28.60;;
42866;SDS011;39461;40.948;73.006;2023-02-28T06:46:46;92.63;;;58.22;;
42866;SDS011;39461;40.948;73.006;2023-02-28T06:49:21;103.40;;;67.47;;
42866;SDS011;39461;40.948;73.006;2023-02-28T06:51:57;208.68;;;150.15;;
42866;SDS011;39461;40.948;73.006;2023-02-28T06:54:30;68.05;;;48.40;;
42866;SDS011;39461;40.948;73.006;2023-02-28T06:57:04;61.70;;;41.17;;
42866;SDS011;39461;40.948;73.006;2023-02-28T06:59:37;55.40;;;37.22;;
42866;SDS011;39461;40.948;73.006;2023-02-28T07:02:11;55.08;;;35.38;;
42866;SDS011;39461;40.948;73.006;2023-02-28T07:04:45;95.90;;;71.28;;
42866;SDS011;39461;40.948;73.006;2023-02-28T07:07:20;65.72;;;44.70;;
42866;SDS011;39461;40.948;73.006;2023-02-28T07:09:56;72.82;;;43.33;;
42866;SDS011;39461;40.948;73.006;2023-02-28T07:12:32;50.42;;;34.17;;
42866;SDS011;39461;40.948;73.006;2023-02-28T07:15:06;49.95;;;31.63;;
42866;SDS011;39461;40.948;73.006;2023-02-28T07:17:42;48.03;;;31.85;;
42866;SDS011;39461;40.948;73.006;2023-02-28T07:20:22;49.35;;;32.05;;
42866;SDS011;39461;40.948;73.006;2023-02-28T07:22:55;48.60;;;29.88;;
42866;SDS011;39461;40.948;73.006;2023-02-28T07:25:29;48.20;;;29.58;;
42866;SDS011;39461;40.948;73.006;2023-02-28T07:28:04;49.08;;;32.00;;
42866;SDS011;39461;40.948;73.006;2023-02-28T07:30:38;46.22;;;30.77;;
42866;SDS011;39461;40.948;73.006;2023-02-28T07:33:12;35.13;;;24.02;;
42866;SDS011;39461;40.948;73.006;2023-02-28T07:35:48;38.10;;;23.65;;
42866;SDS011;39461;40.948;73.006;2023-02-28T07:38:21;37.90;;;25.85;;
42866;SDS011;39461;40.948;73.006;2023-02-28T07:40:56;33.20;;;24.05;;
42866;SDS011;39461;40.948;73.006;2023-02-28T07:43:30;34.70;;;22.33;;
42866;SDS011;39461;40.948;73.006;2023-02-28T07:46:11;35.92;;;23.88;;
42866;SDS011;39461;40.948;73.006;2023-02-28T07:48:50;38.00;;;22.50;;
42866;SDS011;39461;40.948;73.006;2023-02-28T07:51:24;31.60;;;19.63;;
42866;SDS011;39461;40.948;73.006;2023-02-28T07:54:02;29.98;;;19.75;;
42866;SDS011;39461;40.948;73.006;2023-02-28T07:56:38;25.60;;;16.35;;
42866;SDS011;39461;40.948;73.006;2023-02-28T07:59:11;32.17;;;18.55;;
42866;SDS011;39461;40.948;73.006;2023-02-28T08:01:45;26.55;;;16.80;;
42866;SDS011;39461;40.948;73.006;2023-02-28T08:04:20;27.73;;;18.25;;
42866;SDS011;39461;40.948;73.006;2023-02-28T08:06:55;29.00;;;19.02;;
42866;SDS011;39461;40.948;73.006;2023-02-28T08:09:31;26.38;;;17.58;;
42866;SDS011;39461;40.948;73.006;2023-02-28T08:15:05;30.05;;;17.63;;
42866;SDS011;39461;40.948;73.006;2023-02-28T08:17:41;34.70;;;20.60;;
42866;SDS011;39461;40.948;73.006;2023-02-28T08:20:13;31.50;;;19.95;;
42866;SDS011;39461;40.948;73.006;2023-02-28T08:22:48;38.70;;;23.48;;
42866;SDS011;39461;40.948;73.006;2023-02-28T08:25:16;35.03;;;23.67;;
42866;SDS011;39461;40.948;73.006;2023-02-28T08:27:43;60.35;;;32.17;;
42866;SDS011;39461;40.948;73.006;2023-02-28T08:33:17;56.90;;;28.70;;
42866;SDS011;39461;40.948;73.006;2023-02-28T08:35:53;44.80;;;30.48;;
42866;SDS011;39461;40.948;73.006;2023-02-28T08:38:27;44.47;;;27.40;;
42866;SDS011;39461;40.948;73.006;2023-02-28T08:41:03;41.05;;;25.70;;
42866;SDS011;39461;40.948;73.006;2023-02-28T08:43:42;51.67;;;32.13;;
42866;SDS011;39461;40.948;73.006;2023-02-28T08:46:17;51.20;;;29.13;;
42866;SDS011;39461;40.948;73.006;2023-02-28T08:48:54;47.55;;;30.75;;
42866;SDS011;39461;40.948;73.006;2023-02-28T08:54:29;42.30;;;26.35;;
42866;SDS011;39461;40.948;73.006;2023-02-28T08:57:06;43.72;;;25.42;;
42866;SDS011;39461;40.948;73.006;2023-02-28T08:59:39;44.67;;;26.38;;
42866;SDS011;39461;40.948;73.006;2023-02-28T09:02:17;42.78;;;27.63;;
42866;SDS011;39461;40.948;73.006;2023-02-28T09:07:51;51.92;;;30.15;;
42866;SDS011;39461;40.948;73.006;2023-02-28T09:10:26;49.10;;;34.00;;
42866;SDS011;39461;40.948;73.006;2023-02-28T09:13:01;50.17;;;32.35;;
42866;SDS011;39461;40.948;73.006;2023-02-28T09:15:39;46.97;;;29.73;;
42866;SDS011;39461;40.948;73.006;2023-02-28T09:18:13;48.08;;;31.42;;
42866;SDS011;39461;40.948;73.006;2023-02-28T09:20:48;50.58;;;34.15;;
42866;SDS011;39461;40.948;73.006;2023-02-28T09:23:24;50.67;;;31.23;;
42866;SDS011;39461;40.948;73.006;2023-02-28T09:26:00;42.42;;;29.70;;
42866;SDS011;39461;40.948;73.006;2023-02-28T09:28:34;42.97;;;28.73;;
42866;SDS011;39461;40.948;73.006;2023-02-28T09:31:18;48.72;;;31.88;;
42866;SDS011;39461;40.948;73.006;2023-02-28T09:33:54;55.97;;;32.33;;
42866;SDS011;39461;40.948;73.006;2023-02-28T09:36:29;52.90;;;33.42;;
42866;SDS011;39461;40.948;73.006;2023-02-28T09:39:02;53.50;;;37.05;;
42866;SDS011;39461;40.948;73.006;2023-02-28T09:41:40;51.22;;;36.60;;
42866;SDS011;39461;40.948;73.006;2023-02-28T09:47:45;72.57;;;39.08;;
42866;SDS011;39461;40.948;73.006;2023-02-28T09:49:52;61.42;;;40.90;;
42866;SDS011;39461;40.948;73.006;2023-02-28T09:52:30;69.88;;;43.83;;
42866;SDS011;39461;40.948;73.006;2023-02-28T09:57:50;58.25;;;40.17;;
42866;SDS011;39461;40.948;73.006;2023-02-28T10:05:58;64.20;;;44.97;;
42866;SDS011;39461;40.948;73.006;2023-02-28T10:08:40;61.35;;;43.47;;
42866;SDS011;39461;40.948;73.006;2023-02-28T10:11:16;71.10;;;43.90;;
42866;SDS011;39461;40.948;73.006;2023-02-28T10:14:02;74.63;;;46.40;;
42866;SDS011;39461;40.948;73.006;2023-02-28T10:19:23;68.38;;;47.10;;
42866;SDS011;39461;40.948;73.006;2023-02-28T10:22:00;72.53;;;49.35;;
42866;SDS011;39461;40.948;73.006;2023-02-28T10:24:35;68.88;;;47.83;;
42866;SDS011;39461;40.948;73.006;2023-02-28T10:27:16;73.07;;;46.92;;
42866;SDS011;39461;40.948;73.006;2023-02-28T10:30:01;62.55;;;43.90;;
42866;SDS011;39461;40.948;73.006;2023-02-28T10:32:37;69.63;;;46.80;;
42866;SDS011;39461;40.948;73.006;2023-02-28T10:37:54;71.97;;;47.72;;
42866;SDS011;39461;40.948;73.006;2023-02-28T10:40:33;67.55;;;45.00;;
42866;SDS011;39461;40.948;73.006;2023-02-28T10:45:54;72.40;;;49.30;;
42866;SDS011;39461;40.948;73.006;2023-02-28T10:51:11;79.90;;;54.17;;
42866;SDS011;39461;40.948;73.006;2023-02-28T10:56:26;62.80;;;44.97;;
42866;SDS011;39461;40.948;73.006;2023-02-28T10:59:02;67.25;;;44.67;;
42866;SDS011;39461;40.948;73.006;2023-02-28T11:01:43;68.60;;;43.92;;
42866;SDS011;39461;40.948;73.006;2023-02-28T11:04:40;68.95;;;45.55;;
42866;SDS011;39461;40.948;73.006;2023-02-28T11:07:20;65.57;;;44.80;;
42866;SDS011;39461;40.948;73.006;2023-02-28T11:09:56;72.60;;;47.00;;
42866;SDS011;39461;40.948;73.006;2023-02-28T11:12:34;89.47;;;58.55;;
42866;SDS011;39461;40.948;73.006;2023-02-28T11:15:21;76.50;;;55.13;;
42866;SDS011;39461;40.948;73.006;2023-02-28T11:20:52;74.75;;;46.20;;
42866;SDS011;39461;40.948;73.006;2023-02-28T11:23:30;63.28;;;43.35;;
42866;SDS011;39461;40.948;73.006;2023-02-28T11:26:10;66.38;;;42.05;;
42866;SDS011;39461;40.948;73.006;2023-02-28T11:29:02;102.75;;;73.10;;
42866;SDS011;39461;40.948;73.006;2023-02-28T11:31:39;66.07;;;44.97;;
42866;SDS011;39461;40.948;73.006;2023-02-28T11:34:25;73.57;;;46.47;;
42866;SDS011;39461;40.948;73.006;2023-02-28T11:36:59;61.70;;;41.17;;
42866;SDS011;39461;40.948;73.006;2023-02-28T11:39:37;63.70;;;42.03;;
42866;SDS011;39461;40.948;73.006;2023-02-28T11:42:16;66.18;;;44.47;;
42866;SDS011;39461;40.948;73.006;2023-02-28T11:56:55;66.43;;;43.15;;
42866;SDS011;39461;40.948;73.006;2023-02-28T12:02:23;62.15;;;42.22;;
42866;SDS011;39461;40.948;73.006;2023-02-28T12:05:19;63.65;;;40.38;;
42866;SDS011;39461;40.948;73.006;2023-02-28T12:11:04;103.55;;;66.90;;
42866;SDS011;39461;40.948;73.006;2023-02-28T12:13:46;72.18;;;48.08;;
42866;SDS011;39461;40.948;73.006;2023-02-28T12:19:19;70.85;;;45.55;;
42866;SDS011;39461;40.948;73.006;2023-02-28T12:24:52;63.67;;;42.35;;
42866;SDS011;39461;40.948;73.006;2023-02-28T12:27:22;68.97;;;44.17;;
42866;SDS011;39461;40.948;73.006;2023-02-28T12:30:04;92.88;;;56.05;;
42866;SDS011;39461;40.948;73.006;2023-02-28T12:32:45;96.13;;;57.67;;
42866;SDS011;39461;40.948;73.006;2023-02-28T12:35:25;100.80;;;55.00;;
42866;SDS011;39461;40.948;73.006;2023-02-28T12:38:05;94.65;;;60.20;;
42866;SDS011;39461;40.948;73.006;2023-02-28T12:41:01;77.72;;;52.15;;
42866;SDS011;39461;40.948;73.006;2023-02-28T12:46:41;122.07;;;81.45;;
42866;SDS011;39461;40.948;73.006;2023-02-28T12:49:38;94.85;;;58.42;;
42866;SDS011;39461;40.948;73.006;2023-02-28T12:52:13;115.50;;;61.38;;
42866;SDS011;39461;40.948;73.006;2023-02-28T12:54:55;106.00;;;63.40;;
42866;SDS011;39461;40.948;73.006;2023-02-28T13:09:55;116.38;;;67.03;;
42866;SDS011;39461;40.948;73.006;2023-02-28T13:12:31;112.50;;;67.38;;
42866;SDS011;39461;40.948;73.006;2023-02-28T13:18:27;177.13;;;100.10;;
42866;SDS011;39461;40.948;73.006;2023-02-28T13:21:08;177.13;;;96.50;;
42866;SDS011;39461;40.948;73.006;2023-02-28T13:42:49;501.35;;;267.88;;
42866;SDS011;39461;40.948;73.006;2023-02-28T13:45:28;533.47;;;295.42;;
42866;SDS011;39461;40.948;73.006;2023-02-28T13:48:19;429.80;;;244.45;;
42866;SDS011;39461;40.948;73.006;2023-02-28T13:50:57;374.75;;;233.77;;
42866;SDS011;39461;40.948;73.006;2023-02-28T13:53:39;412.55;;;260.50;;
42866;SDS011;39461;40.948;73.006;2023-02-28T13:56:23;427.83;;;269.52;;
42866;SDS011;39461;40.948;73.006;2023-02-28T13:59:08;418.45;;;266.08;;
42866;SDS011;39461;40.948;73.006;2023-02-28T14:07:25;347.40;;;207.95;;
42866;SDS011;39461;40.948;73.006;2023-02-28T14:10:06;320.60;;;203.88;;
42866;SDS011;39461;40.948;73.006;2023-02-28T14:18:21;328.80;;;204.70;;
42866;SDS011;39461;40.948;73.006;2023-02-28T14:21:38;325.10;;;201.98;;
42866;SDS011;39461;40.948;73.006;2023-02-28T14:26:47;379.20;;;222.15;;
42866;SDS011;39461;40.948;73.006;2023-02-28T14:34:57;253.32;;;150.60;;
42866;SDS011;39461;40.948;73.006;2023-02-28T14:37:33;250.27;;;146.20;;
42866;SDS011;39461;40.948;73.006;2023-02-28T14:40:12;219.52;;;137.20;;
42866;SDS011;39461;40.948;73.006;2023-02-28T14:42:49;252.60;;;153.05;;
42866;SDS011;39461;40.948;73.006;2023-02-28T14:45:31;264.98;;;165.73;;
42866;SDS011;39461;40.948;73.006;2023-02-28T14:48:05;256.38;;;156.93;;
42866;SDS011;39461;40.948;73.006;2023-02-28T14:50:42;222.35;;;138.25;;
42866;SDS011;39461;40.948;73.006;2023-02-28T14:53:35;184.30;;;111.20;;
42866;SDS011;39461;40.948;73.006;2023-02-28T14:56:17;126.35;;;73.40;;
42866;SDS011;39461;40.948;73.006;2023-02-28T14:58:54;102.88;;;58.90;;
42866;SDS011;39461;40.948;73.006;2023-02-28T15:01:29;105.18;;;51.83;;
42866;SDS011;39461;40.948;73.006;2023-02-28T15:04:05;93.57;;;49.58;;
42866;SDS011;39461;40.948;73.006;2023-02-28T15:06:41;70.25;;;39.80;;
42866;SDS011;39461;40.948;73.006;2023-02-28T15:09:18;76.70;;;40.47;;
42866;SDS011;39461;40.948;73.006;2023-02-28T15:11:52;97.55;;;47.08;;
42866;SDS011;39461;40.948;73.006;2023-02-28T15:14:27;102.55;;;54.83;;
42866;SDS011;39461;40.948;73.006;2023-02-28T15:20:02;136.23;;;65.13;;
42866;SDS011;39461;40.948;73.006;2023-02-28T15:22:36;92.30;;;48.75;;
42866;SDS011;39461;40.948;73.006;2023-02-28T15:25:10;98.60;;;46.00;;
42866;SDS011;39461;40.948;73.006;2023-02-28T15:27:50;451.58;;;65.68;;
42866;SDS011;39461;40.948;73.006;2023-02-28T15:30:27;84.55;;;44.65;;
42866;SDS011;39461;40.948;73.006;2023-02-28T15:35:49;76.28;;;43.53;;
42866;SDS011;39461;40.948;73.006;2023-02-28T15:38:24;72.63;;;41.53;;
42866;SDS011;39461;40.948;73.006;2023-02-28T15:40:58;89.25;;;46.03;;
42866;SDS011;39461;40.948;73.006;2023-02-28T15:43:35;89.30;;;48.25;;
42866;SDS011;39461;40.948;73.006;2023-02-28T15:46:09;91.07;;;49.30;;
42866;SDS011;39461;40.948;73.006;2023-02-28T15:51:20;105.30;;;55.83;;
42866;SDS011;39461;40.948;73.006;2023-02-28T15:53:56;100.70;;;58.40;;
42866;SDS011;39461;40.948;73.006;2023-02-28T15:56:31;112.75;;;60.95;;
42866;SDS011;39461;40.948;73.006;2023-02-28T15:59:07;118.03;;;67.65;;
42866;SDS011;39461;40.948;73.006;2023-02-28T16:01:45;122.32;;;68.15;;
42866;SDS011;39461;40.948;73.006;2023-02-28T16:04:20;103.50;;;60.22;;
42866;SDS011;39461;40.948;73.006;2023-02-28T16:07:00;105.70;;;50.65;;
42866;SDS011;39461;40.948;73.006;2023-02-28T16:09:34;80.90;;;42.60;;
42866;SDS011;39461;40.948;73.006;2023-02-28T16:12:11;80.63;;;40.45;;
42866;SDS011;39461;40.948;73.006;2023-02-28T16:14:47;76.95;;;41.83;;
42866;SDS011;39461;40.948;73.006;2023-02-28T16:17:24;67.00;;;33.88;;
42866;SDS011;39461;40.948;73.006;2023-02-28T16:19:57;58.60;;;32.70;;
42866;SDS011;39461;40.948;73.006;2023-02-28T16:22:30;63.25;;;33.33;;
42866;SDS011;39461;40.948;73.006;2023-02-28T16:24:59;58.83;;;31.05;;
42866;SDS011;39461;40.948;73.006;2023-02-28T16:27:32;52.45;;;29.45;;
42866;SDS011;39461;40.948;73.006;2023-02-28T16:30:14;55.95;;;29.55;;
42866;SDS011;39461;40.948;73.006;2023-02-28T16:32:49;49.78;;;27.80;;
42866;SDS011;39461;40.948;73.006;2023-02-28T16:35:22;52.72;;;27.27;;
42866;SDS011;39461;40.948;73.006;2023-02-28T16:37:56;54.97;;;24.90;;
42866;SDS011;39461;40.948;73.006;2023-02-28T16:40:34;52.58;;;28.15;;
42866;SDS011;39461;40.948;73.006;2023-02-28T16:43:14;69.32;;;36.28;;
42866;SDS011;39461;40.948;73.006;2023-02-28T16:45:54;53.70;;;30.35;;
42866;SDS011;39461;40.948;73.006;2023-02-28T16:48:32;49.85;;;30.17;;
42866;SDS011;39461;40.948;73.006;2023-02-28T16:51:05;59.88;;;31.85;;
42866;SDS011;39461;40.948;73.006;2023-02-28T16:53:41;58.42;;;30.65;;
42866;SDS011;39461;40.948;73.006;2023-02-28T16:56:18;50.25;;;28.77;;
42866;SDS011;39461;40.948;73.006;2023-02-28T16:58:52;50.92;;;25.75;;
42866;SDS011;39461;40.948;73.006;2023-02-28T17:01:34;45.47;;;24.20;;
42866;SDS011;39461;40.948;73.006;2023-02-28T17:04:08;50.35;;;25.73;;
42866;SDS011;39461;40.948;73.006;2023-02-28T17:06:42;43.17;;;24.33;;
42866;SDS011;39461;40.948;73.006;2023-02-28T17:09:16;47.88;;;27.67;;
42866;SDS011;39461;40.948;73.006;2023-02-28T17:11:54;50.28;;;28.40;;
42866;SDS011;39461;40.948;73.006;2023-02-28T17:14:30;48.22;;;25.85;;
42866;SDS011;39461;40.948;73.006;2023-02-28T17:17:06;39.45;;;22.83;;
42866;SDS011;39461;40.948;73.006;2023-02-28T17:19:40;44.55;;;23.20;;
42866;SDS011;39461;40.948;73.006;2023-02-28T17:22:15;48.00;;;22.83;;
42866;SDS011;39461;40.948;73.006;2023-02-28T17:24:48;43.58;;;23.70;;
42866;SDS011;39461;40.948;73.006;2023-02-28T17:27:21;44.75;;;26.17;;
42866;SDS011;39461;40.948;73.006;2023-02-28T17:32:55;53.45;;;27.30;;
42866;SDS011;39461;40.948;73.006;2023-02-28T17:35:28;54.95;;;26.73;;
42866;SDS011;39461;40.948;73.006;2023-02-28T17:38:02;56.88;;;26.55;;
42866;SDS011;39461;40.948;73.006;2023-02-28T17:40:35;46.42;;;23.92;;
42866;SDS011;39461;40.948;73.006;2023-02-28T17:43:11;44.85;;;23.38;;
42866;SDS011;39461;40.948;73.006;2023-02-28T17:45:44;38.38;;;22.65;;
42866;SDS011;39461;40.948;73.006;2023-02-28T17:48:21;40.10;;;23.10;;
42866;SDS011;39461;40.948;73.006;2023-02-28T17:50:54;43.97;;;24.13;;
42866;SDS011;39461;40.948;73.006;2023-02-28T17:53:27;39.20;;;23.20;;
42866;SDS011;39461;40.948;73.006;2023-02-28T17:56:00;40.17;;;23.83;;
42866;SDS011;39461;40.948;73.006;2023-02-28T17:58:37;40.60;;;23.02;;
42866;SDS011;39461;40.948;73.006;2023-02-28T18:01:13;41.05;;;21.17;;